Finlandia — OJPP — position and weather

sailwx.info

Track history (hours):
 
Tides and Currents Weather Stations Pressure Air Temp Water Temp Dewpoint Dewpoint Depression Visibility Wind Speed Wind Dir Waves Ship Positions

Finlandia

Last reported at 2015-May-22 17:09 UTC. Time now 2015-May-22 23:40 UTC.
Position N 59°46' E 024°44'.

Length 175 m; draft 7 m.

Type: Passenger vessel. MMSI: 230628000.

Date/timePositionNaut miles runAvg speedWind from/ knotsBaromVisibWave heightAir tempDewpointWater temp
2015-May-22 17:09N 59°46' E 024°44'1423.9
2015-May-22 16:34N 59°32' E 024°44'5 5.3
2015-May-22 15:33N 59°27' E 024°46'7 7.3
2015-May-22 14:33N 59°34' E 024°42'14 3.0
2015-May-22 10:05N 59°47' E 024°46'1120.6
2015-May-22 09:33N 59°37' E 024°41'10 9.8
2015-May-22 08:32N 59°27' E 024°46'4 3.8
2015-May-22 07:33N 59°30' E 024°44'1919.5
2015-May-22 06:33N 59°50' E 024°50'6 0.4
2015-May-21 17:25N 59°44' E 024°47'1719.3
2015-May-21 16:31N 59°27' E 024°46'0 0.2
2015-May-21 15:23N 59°27' E 024°46'8 9.9
2015-May-21 14:33N 59°35' E 024°41'13 3.1
2015-May-21 10:10N 59°48' E 024°46'1321.0
2015-May-21 09:33N 59°35' E 024°42'9 7.5
2015-May-21 08:23N 59°27' E 024°46'4 4.9
2015-May-21 07:33N 59°31' E 024°44'16 1.1
2015-May-20 17:06N 59°46' E 024°49'1323.1
2015-May-20 16:32N 59°34' E 024°43'7 6.8
2015-May-20 15:31N 59°27' E 024°46'8 8.1
2015-May-20 14:34N 59°34' E 024°41'1918.4
2015-May-20 13:33N 59°52' E 024°53'18 4.5
2015-May-20 09:32N 59°35' E 024°42'8 8.0
2015-May-20 08:32N 59°27' E 024°46'2 2.6
2015-May-20 07:33N 59°29' E 024°45'3919.3
2015-May-20 05:31N 60°08' E 024°54'34 2.6
2015-May-19 16:34N 59°35' E 024°42'8 8.2
2015-May-19 15:32N 59°27' E 024°46'8 8.0
2015-May-19 14:33N 59°34' E 024°41'2218.7
2015-May-19 13:24N 59°55' E 024°52'14 6.8
2015-May-19 11:19N 60°09' E 024°55'1718.1
2015-May-19 10:22N 59°52' E 024°51'1822.4
2015-May-19 09:33N 59°34' E 024°42'8 8.0
2015-May-19 08:33N 59°27' E 024°46'4 3.8
2015-May-19 07:33N 59°30' E 024°44'16 1.1
2015-May-18 17:13N 59°46' E 024°49'1522.6
2015-May-18 16:33N 59°31' E 024°44'5 4.7
2015-May-18 15:33N 59°27' E 024°46'8 8.3
2015-May-18 14:33N 59°35' E 024°41'2 0.4
2015-May-18 09:33N 59°37' E 024°42'10 9.9
2015-May-18 08:31N 59°27' E 024°46'2 2.3
2015-May-18 07:32N 59°29' E 024°45'3919.5
2015-May-18 05:32N 60°08' E 024°54'28 2.1
2015-May-17 16:33N 59°41' E 024°40'1514.5
2015-May-17 15:33N 59°27' E 024°46'1 0.8
2015-May-17 14:34N 59°27' E 024°47'2522.9
2015-May-17 13:27N 59°52' E 024°49'6 1.9
2015-May-17 10:08N 59°47' E 024°43'1221.5
2015-May-17 09:33N 59°35' E 024°42'8 8.0
2015-May-17 08:33N 59°27' E 024°46'2 2.0
2015-May-17 07:34N 59°29' E 024°46'2522.0
2015-May-17 06:24N 59°54' E 024°51'2 0.2
2015-May-16 17:20N 59°52' E 024°48'1823.5
2015-May-16 16:34N 59°34' E 024°43'7 7.0
2015-May-16 15:33N 59°27' E 024°46'8 8.0
2015-May-16 14:33N 59°34' E 024°41'1919.1
2015-May-16 13:34N 59°53' E 024°50'3 1.0
2015-May-16 10:15N 59°50' E 024°48'1521.2
2015-May-16 09:33N 59°36' E 024°42'9 9.1
2015-May-16 08:34N 59°27' E 024°46'3 3.1
2015-May-16 07:33N 59°30' E 024°45'1918.8
2015-May-16 06:33N 59°48' E 024°49'5 0.3
2015-May-15 17:03N 59°44' E 024°47'1123.3
2015-May-15 16:34N 59°33' E 024°44'6 6.0
2015-May-15 15:33N 59°27' E 024°46'7 6.9
2015-May-15 14:34N 59°33' E 024°42'4 0.8
2015-May-15 09:34N 59°38' E 024°42'1111.1
2015-May-15 08:34N 59°27' E 024°46'2 1.8
2015-May-15 07:33N 59°29' E 024°46'2019.8
2015-May-15 06:33N 59°48' E 024°45'2 0.2
2015-May-14 17:18N 59°47' E 024°49'1722.7
2015-May-14 16:33N 59°30' E 024°46'3 3.2
2015-May-14 15:34N 59°27' E 024°46'8 7.8
2015-May-14 14:33N 59°34' E 024°42'11 2.5
2015-May-14 10:05N 59°45' E 024°44'1223.6
2015-May-14 09:33N 59°33' E 024°43'7 6.5
2015-May-14 08:34N 59°27' E 024°46'4 4.1
2015-May-14 07:33N 59°31' E 024°44'38 2.9
2015-May-13 18:22N 60°08' E 024°54'2521.1
2015-May-13 17:11N 59°43' E 024°47'1422.4
2015-May-13 16:33N 59°30' E 024°46'3 2.8
2015-May-13 15:33N 59°27' E 024°46'8 7.9
2015-May-13 14:33N 59°34' E 024°41'2919.2
2015-May-13 13:04N 60°02' E 024°55'6 3.5
2015-May-13 11:13N 60°09' E 024°55'2219.4
2015-May-13 10:05N 59°48' E 024°40'1121.1
2015-May-13 09:34N 59°37' E 024°41'1010.3
2015-May-13 08:33N 59°27' E 024°46'3 3.4
2015-May-13 07:33N 59°30' E 024°45'3222.2
2015-May-13 06:07N 60°02' E 024°54'7 0.6
2015-May-12 18:09N 60°09' E 024°55'1821.5
2015-May-12 17:19N 59°51' E 024°49'  
Track history (hours):
 
Tides and Currents Weather Stations Pressure Air Temp Water Temp Dewpoint Dewpoint Depression Visibility Wind Speed Wind Dir Waves Ship Positions

Finlandia

Last reported at 2015-May-22 17:09 UTC. Time now 2015-May-22 23:40 UTC.
Position N 59°46' E 024°44'.

Length 175 m; draft 7 m.

Type: Passenger vessel. MMSI: 230628000.

Date/timePositionNaut miles runAvg speedWind from/ knotsBaromVisibWave heightAir tempDewpointWater temp
2015-May-22 17:09N 59°46' E 024°44'1423.9
2015-May-22 16:34N 59°32' E 024°44'5 5.3
2015-May-22 15:33N 59°27' E 024°46'7 7.3
2015-May-22 14:33N 59°34' E 024°42'14 3.0
2015-May-22 10:05N 59°47' E 024°46'1120.6
2015-May-22 09:33N 59°37' E 024°41'10 9.8
2015-May-22 08:32N 59°27' E 024°46'4 3.8
2015-May-22 07:33N 59°30' E 024°44'1919.5
2015-May-22 06:33N 59°50' E 024°50'6 0.4
2015-May-21 17:25N 59°44' E 024°47'1719.3
2015-May-21 16:31N 59°27' E 024°46'0 0.2
2015-May-21 15:23N 59°27' E 024°46'8 9.9
2015-May-21 14:33N 59°35' E 024°41'13 3.1
2015-May-21 10:10N 59°48' E 024°46'1321.0
2015-May-21 09:33N 59°35' E 024°42'9 7.5
2015-May-21 08:23N 59°27' E 024°46'4 4.9
2015-May-21 07:33N 59°31' E 024°44'16 1.1
2015-May-20 17:06N 59°46' E 024°49'1323.1
2015-May-20 16:32N 59°34' E 024°43'7 6.8
2015-May-20 15:31N 59°27' E 024°46'8 8.1
2015-May-20 14:34N 59°34' E 024°41'1918.4
2015-May-20 13:33N 59°52' E 024°53'18 4.5
2015-May-20 09:32N 59°35' E 024°42'8 8.0
2015-May-20 08:32N 59°27' E 024°46'2 2.6
2015-May-20 07:33N 59°29' E 024°45'3919.3
2015-May-20 05:31N 60°08' E 024°54'34 2.6
2015-May-19 16:34N 59°35' E 024°42'8 8.2
2015-May-19 15:32N 59°27' E 024°46'8 8.0
2015-May-19 14:33N 59°34' E 024°41'2218.7
2015-May-19 13:24N 59°55' E 024°52'14 6.8
2015-May-19 11:19N 60°09' E 024°55'1718.1
2015-May-19 10:22N 59°52' E 024°51'1822.4
2015-May-19 09:33N 59°34' E 024°42'8 8.0
2015-May-19 08:33N 59°27' E 024°46'4 3.8
2015-May-19 07:33N 59°30' E 024°44'16 1.1
2015-May-18 17:13N 59°46' E 024°49'1522.6
2015-May-18 16:33N 59°31' E 024°44'5 4.7
2015-May-18 15:33N 59°27' E 024°46'8 8.3
2015-May-18 14:33N 59°35' E 024°41'2 0.4
2015-May-18 09:33N 59°37' E 024°42'10 9.9
2015-May-18 08:31N 59°27' E 024°46'2 2.3
2015-May-18 07:32N 59°29' E 024°45'3919.5
2015-May-18 05:32N 60°08' E 024°54'28 2.1
2015-May-17 16:33N 59°41' E 024°40'1514.5
2015-May-17 15:33N 59°27' E 024°46'1 0.8
2015-May-17 14:34N 59°27' E 024°47'2522.9
2015-May-17 13:27N 59°52' E 024°49'6 1.9
2015-May-17 10:08N 59°47' E 024°43'1221.5
2015-May-17 09:33N 59°35' E 024°42'8 8.0
2015-May-17 08:33N 59°27' E 024°46'2 2.0
2015-May-17 07:34N 59°29' E 024°46'2522.0
2015-May-17 06:24N 59°54' E 024°51'2 0.2
2015-May-16 17:20N 59°52' E 024°48'1823.5
2015-May-16 16:34N 59°34' E 024°43'7 7.0
2015-May-16 15:33N 59°27' E 024°46'8 8.0
2015-May-16 14:33N 59°34' E 024°41'1919.1
2015-May-16 13:34N 59°53' E 024°50'3 1.0
2015-May-16 10:15N 59°50' E 024°48'1521.2
2015-May-16 09:33N 59°36' E 024°42'9 9.1
2015-May-16 08:34N 59°27' E 024°46'3 3.1
2015-May-16 07:33N 59°30' E 024°45'1918.8
2015-May-16 06:33N 59°48' E 024°49'5 0.3
2015-May-15 17:03N 59°44' E 024°47'1123.3
2015-May-15 16:34N 59°33' E 024°44'6 6.0
2015-May-15 15:33N 59°27' E 024°46'7 6.9
2015-May-15 14:34N 59°33' E 024°42'4 0.8
2015-May-15 09:34N 59°38' E 024°42'1111.1
2015-May-15 08:34N 59°27' E 024°46'2 1.8
2015-May-15 07:33N 59°29' E 024°46'2019.8
2015-May-15 06:33N 59°48' E 024°45'2 0.2
2015-May-14 17:18N 59°47' E 024°49'1722.7
2015-May-14 16:33N 59°30' E 024°46'3 3.2
2015-May-14 15:34N 59°27' E 024°46'8 7.8
2015-May-14 14:33N 59°34' E 024°42'11 2.5
2015-May-14 10:05N 59°45' E 024°44'1223.6
2015-May-14 09:33N 59°33' E 024°43'7 6.5
2015-May-14 08:34N 59°27' E 024°46'4 4.1
2015-May-14 07:33N 59°31' E 024°44'38 2.9
2015-May-13 18:22N 60°08' E 024°54'2521.1
2015-May-13 17:11N 59°43' E 024°47'1422.4
2015-May-13 16:33N 59°30' E 024°46'3 2.8
2015-May-13 15:33N 59°27' E 024°46'8 7.9
2015-May-13 14:33N 59°34' E 024°41'2919.2
2015-May-13 13:04N 60°02' E 024°55'6 3.5
2015-May-13 11:13N 60°09' E 024°55'2219.4
2015-May-13 10:05N 59°48' E 024°40'1121.1
2015-May-13 09:34N 59°37' E 024°41'1010.3
2015-May-13 08:33N 59°27' E 024°46'3 3.4
2015-May-13 07:33N 59°30' E 024°45'3222.2
2015-May-13 06:07N 60°02' E 024°54'7 0.6
2015-May-12 18:09N 60°09' E 024°55'1821.5
2015-May-12 17:19N 59°51' E 024°49'  

Dump ship's entire track history